Time;durP1;ratioP1;P1;durP2;ratioP2;P2;SDS_P1;SDS_P2;PMS_P1;PMS_P2;Temp;Humidity;BMP_temperature;BMP_pressure;BME280_temperature;BME280_humidity;BME280_pressure;Samples;Min_cycle;Max_cycle;Signal;HPM_P1;HPM_P2
2022/12/01 00:00:53;;;;;;;6.45;3.28;;;;;;;7.17;100.00;100544.56;5069465;28;20036;-29
2022/12/01 00:03:19;;;;;;;5.25;3.05;;;;;;;7.04;100.00;100549.69;5051431;28;20047;-29
2022/12/01 00:05:44;;;;;;;5.65;3.15;;;;;;;6.89;100.00;100541.75;5069685;28;20500;-31
2022/12/01 00:08:09;;;;;;;5.80;3.08;;;;;;;6.88;100.00;100536.59;5067466;28;20443;-38
2022/12/01 00:10:35;;;;;;;5.47;3.42;;;;;;;6.89;100.00;100525.00;5069496;28;20035;-30
2022/12/01 00:13:03;;;;;;;7.82;3.50;;;;;;;6.95;100.00;100534.88;5069429;28;20032;-31
2022/12/01 00:15:34;;;;;;;8.25;3.75;;;;;;;6.95;100.00;100537.53;5069341;28;20090;-28
2022/12/01 00:18:01;;;;;;;6.05;3.58;;;;;;;6.84;100.00;100518.44;5069650;28;20470;-28
2022/12/01 00:20:27;;;;;;;6.07;3.65;;;;;;;6.96;100.00;100528.56;5050913;28;20553;-28
2022/12/01 00:22:53;;;;;;;9.88;5.93;;;;;;;6.89;100.00;100509.91;5069308;28;20040;-29
2022/12/01 00:25:19;;;;;;;9.23;5.80;;;;;;;6.99;100.00;100525.56;5069228;28;20396;-30
2022/12/01 00:27:49;;;;;;;7.85;4.50;;;;;;;7.19;100.00;100537.25;5050959;28;20032;-28
2022/12/01 00:30:16;;;;;;;21.92;16.27;;;;;;;7.04;100.00;100531.94;5069265;28;20178;-28
2022/12/01 00:32:41;;;;;;;41.70;34.50;;;;;;;6.91;100.00;100520.34;5067734;28;20041;-30
2022/12/01 00:35:08;;;;;;;8.75;5.40;;;;;;;6.98;100.00;100518.59;5069102;28;20039;-30
2022/12/01 00:37:34;;;;;;;6.55;3.78;;;;;;;7.02;100.00;100536.59;5058366;28;20121;-29
2022/12/01 00:40:00;;;;;;;8.27;4.00;;;;;;;6.99;100.00;100536.16;5088854;28;20035;-29
2022/12/01 00:42:26;;;;;;;10.05;5.65;;;;;;;7.21;100.00;100534.38;5070477;28;20030;-29
2022/12/01 00:44:52;;;;;;;7.95;4.43;;;;;;;7.07;100.00;100528.13;5088355;28;20744;-29
2022/12/01 00:47:17;;;;;;;8.18;4.57;;;;;;;6.93;100.00;100539.56;5089121;28;20043;-36
2022/12/01 00:49:46;;;;;;;9.23;4.63;;;;;;;6.99;100.00;100531.69;5089060;28;20111;-29
2022/12/01 00:52:12;;;;;;;9.50;5.28;;;;;;;6.80;100.00;100516.31;5070341;28;20032;-28
2022/12/01 00:54:38;;;;;;;14.00;7.95;;;;;;;6.84;100.00;100513.13;5070697;28;20024;-32
2022/12/01 00:57:04;;;;;;;18.60;12.18;;;;;;;6.78;100.00;100518.31;5087027;28;20032;-36
2022/12/01 00:59:29;;;;;;;11.05;5.70;;;;;;;6.88;100.00;100518.88;5089012;28;20095;-35
2022/12/01 01:01:54;;;;;;;27.90;16.27;;;;;;;6.76;100.00;100515.88;5088976;28;20428;-28
2022/12/01 01:04:20;;;;;;;8.73;4.63;;;;;;;6.68;100.00;100508.00;5088501;28;20106;-28
2022/12/01 01:06:45;;;;;;;62.45;32.53;;;;;;;6.66;100.00;100488.81;5088538;28;20143;-28
2022/12/01 01:09:12;;;;;;;16.98;9.43;;;;;;;6.90;100.00;100510.75;5088634;28;20228;-28
2022/12/01 01:11:38;;;;;;;10.70;5.40;;;;;;;7.00;100.00;100508.63;5088240;28;20514;-30
2022/12/01 01:14:05;;;;;;;7.60;5.00;;;;;;;6.86;100.00;100501.50;5088080;28;20032;-30
2022/12/01 01:16:30;;;;;;;7.15;4.00;;;;;;;6.79;100.00;100477.56;5070249;28;20024;-28
2022/12/01 01:18:57;;;;;;;5.78;3.53;;;;;;;7.00;100.00;100505.97;5088694;28;20036;-27
2022/12/01 01:21:23;;;;;;;5.43;3.15;;;;;;;6.92;100.00;100487.50;5088801;28;20095;-27
2022/12/01 01:23:49;;;;;;;5.00;3.33;;;;;;;7.03;100.00;100503.78;5069857;28;20044;-29
2022/12/01 01:26:24;;;;;;;5.10;3.03;;;;;;;6.84;100.00;100483.97;5087784;28;20024;-30
2022/12/01 01:28:51;;;;;;;6.85;3.70;;;;;;;7.02;100.00;100494.16;5088250;28;20024;-27
2022/12/01 01:31:19;;;;;;;9.48;5.20;;;;;;;6.88;100.00;100480.94;5088099;28;20028;-27
2022/12/01 01:33:45;;;;;;;6.50;3.47;;;;;;;7.06;100.00;100489.31;5087989;28;20419;-32
2022/12/01 01:36:11;;;;;;;5.20;2.88;;;;;;;6.88;100.00;100476.44;5087775;28;20039;-29
2022/12/01 01:38:37;;;;;;;5.95;3.40;;;;;;;6.79;100.00;100473.09;5087938;28;20032;-29
2022/12/01 01:41:04;;;;;;;5.32;3.40;;;;;;;6.94;100.00;100485.50;5069792;28;20441;-28
2022/12/01 01:43:52;;;;;;;5.05;2.88;;;;;;;6.97;100.00;100496.56;5087910;28;20035;-31
2022/12/01 01:46:30;;;;;;;5.10;2.75;;;;;;;6.94;100.00;100490.81;5087755;28;20031;-28
2022/12/01 01:48:59;;;;;;;4.00;2.43;;;;;;;6.94;100.00;100485.50;5087975;28;20074;-29
2022/12/01 01:51:27;;;;;;;4.97;2.90;;;;;;;6.86;100.00;100480.28;5088426;28;20043;-29
2022/12/01 01:53:57;;;;;;;4.13;2.55;;;;;;;6.72;100.00;100482.78;5087882;28;20043;-28
2022/12/01 01:56:23;;;;;;;4.45;2.50;;;;;;;6.89;100.00;100482.59;5087402;28;20415;-33
2022/12/01 01:58:49;;;;;;;4.90;2.58;;;;;;;6.82;100.00;100478.03;5069312;28;20032;-28
2022/12/01 02:01:15;;;;;;;5.13;2.72;;;;;;;6.96;100.00;100480.84;5087850;28;20101;-29
2022/12/01 02:03:41;;;;;;;4.35;2.70;;;;;;;6.79;100.00;100466.97;5087433;28;20466;-28
2022/12/01 02:06:08;;;;;;;5.45;2.90;;;;;;;6.97;100.00;100485.16;5085749;28;20023;-30
2022/12/01 02:08:34;;;;;;;5.10;2.63;;;;;;;6.83;100.00;100458.44;5087545;28;20048;-29
2022/12/01 02:11:15;;;;;;;5.45;3.20;;;;;;;7.00;100.00;100479.47;5087523;28;20031;-32
2022/12/01 02:13:56;;;;;;;5.95;3.50;;;;;;;6.93;100.00;100473.25;5087780;28;20077;-27
2022/12/01 02:16:48;;;;;;;6.30;2.95;;;;;;;7.15;100.00;100472.31;5085673;28;20412;-29
2022/12/01 02:19:29;;;;;;;6.70;2.95;;;;;;;7.02;100.00;100472.13;5087450;28;20032;-28
2022/12/01 02:21:57;;;;;;;3.88;2.80;;;;;;;6.89;100.00;100466.69;5087327;28;20838;-30
2022/12/01 02:24:50;;;;;;;5.35;3.10;;;;;;;6.94;100.00;100464.28;5087161;28;20059;-32
2022/12/01 02:27:21;;;;;;;6.68;3.30;;;;;;;6.97;100.00;100463.94;5085911;28;20028;-34
2022/12/01 02:29:46;;;;;;;5.60;3.40;;;;;;;6.81;100.00;100460.47;5087247;28;20039;-28
2022/12/01 02:32:50;;;;;;;6.05;4.05;;;;;;;6.86;100.00;100467.03;5086581;28;20024;-28
2022/12/01 02:35:33;;;;;;;6.60;3.63;;;;;;;6.95;100.00;100460.66;5084714;28;20040;-28
2022/12/01 02:38:30;;;;;;;7.00;4.38;;;;;;;6.84;100.00;100459.25;5087191;28;20024;-28
2022/12/01 02:41:15;;;;;;;6.43;4.18;;;;;;;6.84;100.00;100454.81;5071064;28;20130;-30
2022/12/01 02:44:16;;;;;;;9.90;4.60;;;;;;;6.72;100.00;100458.09;5068881;28;20060;-29
2022/12/01 02:46:51;;;;;;;7.90;4.75;;;;;;;6.52;100.00;100449.88;5024289;28;20052;-35
2022/12/01 02:49:22;;;;;;;8.85;4.97;;;;;;;6.62;100.00;100453.09;5068678;28;20020;-33
2022/12/01 02:51:49;;;;;;;9.10;5.85;;;;;;;6.49;100.00;100429.88;5086845;28;20028;-29
2022/12/01 02:54:16;;;;;;;10.57;5.93;;;;;;;6.56;100.00;100446.69;5086984;28;20032;-30
2022/12/01 02:56:45;;;;;;;11.60;6.68;;;;;;;6.63;100.00;100455.53;5086974;28;20044;-30
2022/12/01 02:59:14;;;;;;;10.43;5.28;;;;;;;6.49;100.00;100450.25;5068744;28;20077;-29
2022/12/01 03:01:57;;;;;;;12.50;6.05;;;;;;;6.73;100.00;100457.91;5086851;28;20039;-28
2022/12/01 03:04:59;;;;;;;10.93;5.72;;;;;;;6.64;100.00;100448.44;5086875;28;20075;-28
2022/12/01 03:07:52;;;;;;;13.00;6.32;;;;;;;6.49;100.00;100447.59;5087111;28;20063;-28
2022/12/01 03:10:47;;;;;;;12.40;5.75;;;;;;;6.42;100.00;100423.66;5072273;28;20024;-29
2022/12/01 03:13:41;;;;;;;12.60;5.93;;;;;;;6.44;100.00;100438.38;5072809;28;20064;-32
2022/12/01 03:16:16;;;;;;;12.95;6.15;;;;;;;6.39;100.00;100439.91;5090541;28;20024;-28
2022/12/01 03:18:53;;;;;;;12.52;5.85;;;;;;;6.38;100.00;100439.09;5090427;28;20040;-33
2022/12/01 03:21:34;;;;;;;9.65;4.88;;;;;;;6.55;100.00;100444.22;5089544;28;20035;-28
2022/12/01 03:24:12;;;;;;;11.50;5.90;;;;;;;6.61;100.00;100438.19;5090434;28;20056;-28
2022/12/01 03:26:41;;;;;;;9.25;4.45;;;;;;;6.62;100.00;100418.63;5090598;28;20407;-28
2022/12/01 03:29:19;;;;;;;7.70;3.83;;;;;;;6.66;100.00;100441.13;5071779;28;20028;-30
2022/12/01 03:31:49;;;;;;;8.93;4.00;;;;;;;6.72;100.00;100434.22;5090952;28;20035;-31
2022/12/01 03:34:33;;;;;;;7.65;3.90;;;;;;;6.69;100.00;100435.44;5071893;28;20032;-30
2022/12/01 03:37:05;;;;;;;6.47;3.80;;;;;;;6.75;100.00;100440.00;5090461;28;20056;-32
2022/12/01 03:39:34;;;;;;;7.13;3.55;;;;;;;6.61;100.00;100417.78;5090302;28;20031;-29
2022/12/01 03:42:23;;;;;;;7.07;3.35;;;;;;;6.75;100.00;100440.00;5090236;28;20085;-28
2022/12/01 03:44:52;;;;;;;8.75;3.58;;;;;;;6.55;100.00;100410.59;5090652;28;20077;-30
2022/12/01 03:47:21;;;;;;;4.95;3.20;;;;;;;6.73;100.00;100436.72;5090085;28;20032;-30
2022/12/01 03:49:50;;;;;;;5.78;3.30;;;;;;;6.52;100.00;100423.38;5090037;28;20562;-29
2022/12/01 03:52:34;;;;;;;5.63;3.05;;;;;;;6.63;100.00;100442.28;5089518;28;20474;-29
2022/12/01 03:55:18;;;;;;;5.45;3.28;;;;;;;6.82;100.00;100438.25;5088677;28;20080;-33
2022/12/01 03:58:07;;;;;;;8.48;3.75;;;;;;;6.67;100.00;100448.03;5089854;28;20687;-29
2022/12/01 04:00:33;;;;;;;5.57;3.65;;;;;;;6.48;100.00;100422.09;5089768;28;20394;-33
2022/12/01 04:03:03;;;;;;;6.30;4.00;;;;;;;6.82;100.00;100437.41;5071235;28;20028;-33
2022/12/01 04:05:31;;;;;;;8.38;3.80;;;;;;;6.61;100.00;100446.13;5089859;28;20525;-28
2022/12/01 04:07:56;;;;;;;8.47;4.27;;;;;;;6.73;100.00;100449.97;5089492;28;20056;-29
2022/12/01 04:10:22;;;;;;;10.20;6.40;;;;;;;6.74;100.00;100446.31;5089599;28;20282;-29
2022/12/01 04:12:48;;;;;;;9.65;4.95;;;;;;;6.82;100.00;100446.22;5071100;28;20411;-30
2022/12/01 04:15:13;;;;;;;6.93;4.13;;;;;;;6.64;100.00;100435.19;5088186;28;20036;-33
2022/12/01 04:17:44;;;;;;;7.10;4.10;;;;;;;6.70;100.00;100453.00;5071136;28;20518;-28
2022/12/01 04:20:12;;;;;;;6.88;4.05;;;;;;;6.63;100.00;100426.38;5069912;28;20035;-28
2022/12/01 04:22:38;;;;;;;;;;;;;;;6.73;100.00;100449.97;5089947;28;20028;-29
2022/12/01 04:25:05;;;;;;;8.40;4.45;;;;;;;6.96;100.00;100454.31;5071137;28;19968;-28
2022/12/01 04:27:31;;;;;;;7.07;3.92;;;;;;;6.93;100.00;100458.16;5089202;28;20032;-28
2022/12/01 04:29:56;;;;;;;6.10;3.90;;;;;;;6.87;100.00;100452.78;5070672;28;20026;-30
2022/12/01 04:32:22;;;;;;;8.15;4.45;;;;;;;6.94;100.00;100459.00;5070997;28;20097;-27
2022/12/01 04:34:47;;;;;;;7.40;4.35;;;;;;;6.75;100.00;100455.91;5089295;28;20032;-30
2022/12/01 04:37:13;;;;;;;9.88;5.18;;;;;;;6.85;100.00;100460.94;5089260;28;20110;-29
2022/12/01 04:39:40;;;;;;;7.97;4.68;;;;;;;6.84;100.00;100446.84;5089088;28;20055;-34
2022/12/01 04:42:06;;;;;;;6.93;4.00;;;;;;;6.92;100.00;100471.59;5088934;28;20488;-28
2022/12/01 04:44:32;;;;;;;8.75;4.32;;;;;;;7.06;100.00;100462.81;5070814;28;20039;-28
2022/12/01 04:46:57;;;;;;;7.63;4.97;;;;;;;6.99;100.00;100461.91;5089241;28;20028;-30
2022/12/01 04:49:23;;;;;;;9.15;4.63;;;;;;;7.03;100.00;100463.19;5089141;28;20108;-29
2022/12/01 04:51:49;;;;;;;9.60;4.93;;;;;;;6.98;100.00;100452.31;5071133;28;20828;-28
2022/12/01 04:54:15;;;;;;;11.38;5.90;;;;;;;6.93;100.00;100465.31;5088754;28;20031;-30
2022/12/01 04:56:40;;;;;;;11.73;5.97;;;;;;;6.92;100.00;100466.31;5070304;28;20403;-28
2022/12/01 04:59:06;;;;;;;12.73;6.70;;;;;;;6.91;100.00;100462.03;5088950;28;20164;-28
2022/12/01 05:01:32;;;;;;;12.93;6.97;;;;;;;6.93;100.00;100458.16;5088776;28;20036;-29
2022/12/01 05:03:57;;;;;;;21.73;10.27;;;;;;;7.16;100.00;100457.22;5088531;28;20048;-28
2022/12/01 05:06:26;;;;;;;18.08;9.27;;;;;;;7.05;100.00;100463.81;5069978;28;20495;-29
2022/12/01 05:08:55;;;;;;;16.50;7.82;;;;;;;6.82;100.00;100450.69;5088671;28;20471;-29
2022/12/01 05:11:21;;;;;;;13.90;7.35;;;;;;;6.98;100.00;100457.59;5069954;28;20028;-32
2022/12/01 05:13:47;;;;;;;16.63;9.00;;;;;;;7.00;100.00;100474.16;5088556;28;20422;-30
2022/12/01 05:16:23;;;;;;;14.98;8.07;;;;;;;7.04;100.00;100476.25;5088433;28;20078;-30
2022/12/01 05:18:50;;;;;;;17.58;8.15;;;;;;;7.05;100.00;100477.09;5089057;28;20032;-32
2022/12/01 05:21:16;;;;;;;13.45;7.05;;;;;;;7.03;100.00;100458.69;5086933;28;20042;-33
2022/12/01 05:23:44;;;;;;;14.05;7.60;;;;;;;7.08;100.00;100466.09;5069909;28;20128;-28
2022/12/01 05:26:10;;;;;;;13.50;7.00;;;;;;;7.07;100.00;100469.75;5088464;28;20028;-30
2022/12/01 05:28:37;;;;;;;11.48;6.03;;;;;;;7.07;100.00;100475.06;5069765;28;20024;-29
2022/12/01 05:31:03;;;;;;;13.85;6.45;;;;;;;6.97;100.00;100474.53;5087836;28;20063;-28
2022/12/01 05:33:29;;;;;;;14.38;6.80;;;;;;;6.95;100.00;100479.22;5088417;28;20086;-28
2022/12/01 05:35:55;;;;;;;13.23;7.18;;;;;;;6.95;100.00;100450.03;5088340;28;20081;-28
2022/12/01 05:38:20;;;;;;;15.20;7.15;;;;;;;7.01;100.00;100473.16;5087702;28;20043;-29
2022/12/01 05:40:53;;;;;;;19.75;12.32;;;;;;;6.84;100.00;100470.72;5088046;28;20400;-30
2022/12/01 05:43:20;;;;;;;34.33;23.27;;;;;;;6.79;100.00;100461.66;5069556;28;20085;-29
2022/12/01 05:45:48;;;;;;;24.40;15.13;;;;;;;6.81;100.00;100470.25;5088029;28;20431;-28
2022/12/01 05:48:13;;;;;;;22.48;13.55;;;;;;;6.89;100.00;100483.41;5069102;28;20024;-29
2022/12/01 05:50:39;;;;;;;27.23;20.58;;;;;;;6.80;100.00;100464.13;5087692;28;20036;-30
2022/12/01 05:53:05;;;;;;;18.70;13.60;;;;;;;6.75;100.00;100482.41;5086528;28;20563;-28
2022/12/01 05:55:34;;;;;;;16.02;11.13;;;;;;;6.67;100.00;100463.94;5069266;28;20032;-30
2022/12/01 05:58:00;;;;;;;11.20;6.80;;;;;;;6.77;100.00;100480.41;5087613;28;20035;-28
2022/12/01 06:00:25;;;;;;;12.85;7.28;;;;;;;6.96;100.00;100494.09;5069221;28;20418;-33
2022/12/01 06:02:51;;;;;;;9.60;6.43;;;;;;;6.96;100.00;100492.25;5087652;28;20028;-30
2022/12/01 06:05:16;;;;;;;10.73;6.15;;;;;;;7.01;100.00;100497.03;5087691;28;20028;-28
2022/12/01 06:07:42;;;;;;;13.25;6.95;;;;;;;6.98;100.00;100489.44;5087093;28;20757;-28
2022/12/01 06:10:08;;;;;;;16.50;9.23;;;;;;;7.09;100.00;100488.13;5087212;28;20110;-30
2022/12/01 06:12:34;;;;;;;19.90;9.50;;;;;;;7.03;100.00;100495.00;5087316;28;20039;-29
2022/12/01 06:15:01;;;;;;;16.60;8.90;;;;;;;7.08;100.00;100497.09;5069328;28;20048;-31
2022/12/01 06:17:26;;;;;;;12.18;7.03;;;;;;;7.02;100.00;100488.06;5087354;28;20055;-31
2022/12/01 06:19:52;;;;;;;11.57;6.80;;;;;;;6.98;100.00;100492.06;5087210;28;20044;-28
2022/12/01 06:22:17;;;;;;;17.60;10.07;;;;;;;6.93;100.00;100497.13;5085576;28;20141;-31
2022/12/01 06:24:43;;;;;;;17.73;10.73;;;;;;;6.76;100.00;100469.97;5087404;28;20034;-28
2022/12/01 06:27:08;;;;;;;19.67;11.80;;;;;;;6.99;100.00;100504.34;5086832;28;20028;-32
2022/12/01 06:29:34;;;;;;;22.23;12.35;;;;;;;6.82;100.00;100459.47;5068699;28;20491;-28
2022/12/01 06:31:59;;;;;;;15.88;9.50;;;;;;;7.05;100.00;100487.69;5086814;28;20024;-28
2022/12/01 06:34:25;;;;;;;13.65;8.05;;;;;;;7.03;100.00;100502.97;5068623;28;20027;-31
2022/12/01 06:36:50;;;;;;;13.57;7.68;;;;;;;7.09;100.00;100502.22;5086984;28;20024;-30
2022/12/01 06:39:16;;;;;;;14.57;7.80;;;;;;;6.98;100.00;100482.28;5086937;28;20129;-28
2022/12/01 06:41:42;;;;;;;20.35;10.75;;;;;;;7.08;100.00;100482.00;5068883;28;20028;-28
2022/12/01 06:44:08;;;;;;;13.88;7.80;;;;;;;7.19;100.00;100497.47;5086056;28;20024;-28
2022/12/01 06:46:33;;;;;;;12.43;7.53;;;;;;;7.04;100.00;100496.63;5087078;28;20024;-28
2022/12/01 06:48:59;;;;;;;10.30;7.53;;;;;;;7.16;100.00;100495.16;5086649;28;20031;-29
2022/12/01 06:51:24;;;;;;;9.05;5.88;;;;;;;6.92;100.00;100476.91;5086760;28;20089;-29
2022/12/01 06:53:53;;;;;;;8.57;5.43;;;;;;;7.08;100.00;100487.31;5086837;28;20111;-29
2022/12/01 06:56:20;;;;;;;9.43;5.63;;;;;;;7.24;100.00;100496.88;5068339;28;20028;-28
2022/12/01 06:58:45;;;;;;;9.20;5.65;;;;;;;7.21;100.00;100503.41;5085421;28;20020;-28
2022/12/01 07:01:11;;;;;;;10.45;6.95;;;;;;;7.35;100.00;100498.22;5086812;28;20028;-30
2022/12/01 07:03:37;;;;;;;9.93;5.25;;;;;;;7.31;100.00;100492.47;5068347;28;20059;-29
2022/12/01 07:06:03;;;;;;;329.85;191.70;;;;;;;6.97;100.00;100490.44;5086317;28;20051;-29
2022/12/01 07:08:30;;;;;;;26.55;11.65;;;;;;;6.87;100.00;100500.50;5084882;28;20048;-29
2022/12/01 07:11:00;;;;;;;19.52;8.07;;;;;;;6.73;100.00;100484.41;5068366;28;20055;-30
2022/12/01 07:13:26;;;;;;;16.27;7.05;;;;;;;6.74;100.00;100483.44;5068298;28;20158;-28
2022/12/01 07:15:52;;;;;;;6.40;3.08;;;;;;;6.95;100.00;100503.06;5086417;28;20131;-29
2022/12/01 07:18:17;;;;;;;6.22;2.90;;;;;;;7.61;100.00;100514.44;5067763;28;20039;-33
2022/12/01 07:20:43;;;;;;;6.70;3.08;;;;;;;6.92;100.00;100492.81;5086645;28;20028;-29
2022/12/01 07:23:08;;;;;;;4.70;2.15;;;;;;;7.04;100.00;100508.06;5086449;28;20035;-30
2022/12/01 07:25:33;;;;;;;4.88;2.33;;;;;;;7.11;100.00;100502.03;5086703;28;20106;-29
2022/12/01 07:27:59;;;;;;;3.78;1.85;;;;;;;7.05;100.00;100503.59;5086185;28;20020;-30
2022/12/01 07:30:24;;;;;;;8.10;3.80;;;;;;;6.81;100.00;100500.22;5086609;28;20036;-30
2022/12/01 07:32:49;;;;;;;7.90;3.70;;;;;;;6.97;100.00;100485.97;5086243;28;20123;-29
2022/12/01 07:35:15;;;;;;;6.43;2.50;;;;;;;6.62;100.00;100498.13;5086462;28;20028;-28
2022/12/01 07:37:40;;;;;;;8.45;3.25;;;;;;;7.02;100.00;100504.78;5087025;28;20450;-28
2022/12/01 07:40:06;;;;;;;7.90;2.90;;;;;;;6.98;100.00;100497.38;5086168;28;20032;-31
2022/12/01 07:42:32;;;;;;;6.88;3.53;;;;;;;6.38;100.00;100491.25;5086504;28;20042;-31
2022/12/01 07:44:57;;;;;;;10.80;3.00;;;;;;;6.39;100.00;100487.59;5086255;28;20028;-28
2022/12/01 07:47:22;;;;;;;8.07;3.00;;;;;;;6.27;100.00;100507.56;5086358;28;20036;-28
2022/12/01 07:49:48;;;;;;;7.78;3.28;;;;;;;6.46;100.00;100503.56;5086092;28;20450;-29
2022/12/01 07:52:14;;;;;;;6.55;3.20;;;;;;;6.09;100.00;100500.78;5086261;28;20436;-33
2022/12/01 07:54:39;;;;;;;7.57;2.75;;;;;;;6.00;100.00;100507.97;5069384;28;20043;-29
2022/12/01 07:57:05;;;;;;;8.23;3.65;;;;;;;5.99;100.00;100482.50;5089999;28;20422;-27
2022/12/01 07:59:30;;;;;;;5.57;2.53;;;;;;;6.05;100.00;100518.03;5089965;28;20031;-28
2022/12/01 08:01:56;;;;;;;4.45;2.10;;;;;;;5.91;100.00;100516.97;5087920;28;20047;-31
2022/12/01 08:04:21;;;;;;;3.97;1.80;;;;;;;5.57;100.00;100489.06;5089677;28;20099;-29
2022/12/01 08:06:46;;;;;;;3.85;1.90;;;;;;;5.71;100.00;100510.47;5089583;28;20055;-28
2022/12/01 08:09:12;;;;;;;3.47;1.65;;;;;;;5.78;100.00;100511.41;5089608;28;20043;-28
2022/12/01 08:11:37;;;;;;;4.22;2.15;;;;;;;5.93;100.00;100517.59;5089551;28;20034;-35
2022/12/01 08:14:03;;;;;;;4.38;1.75;;;;;;;5.89;100.00;100496.97;5089527;28;20085;-28
2022/12/01 08:16:30;;;;;;;2.83;1.52;;;;;;;5.85;100.00;100477.97;5089341;28;20043;-29
2022/12/01 08:18:55;;;;;;;3.08;1.70;;;;;;;5.94;100.00;100497.25;5071055;28;20139;-30
2022/12/01 08:21:22;;;;;;;4.53;1.77;;;;;;;6.03;100.00;100515.56;5071234;28;20148;-28
2022/12/01 08:23:52;;;;;;;3.10;1.35;;;;;;;5.93;100.00;100499.06;5089676;28;20028;-32
2022/12/01 08:26:19;;;;;;;3.72;1.65;;;;;;;5.86;100.00;100515.84;5089211;28;20432;-28
2022/12/01 08:28:45;;;;;;;3.42;1.77;;;;;;;5.93;100.00;100493.78;5089115;28;20035;-32
2022/12/01 08:31:17;;;;;;;2.22;1.50;;;;;;;6.16;100.00;100504.38;5070972;28;20032;-28
2022/12/01 08:33:43;;;;;;;4.32;2.42;;;;;;;6.09;100.00;100508.75;5089195;28;20036;-30
2022/12/01 08:36:09;;;;;;;6.97;3.20;;;;;;;6.07;100.00;100504.59;5089316;28;20345;-32
2022/12/01 08:38:34;;;;;;;6.30;3.00;;;;;;;5.91;100.00;100490.47;5070684;28;20553;-28
2022/12/01 08:41:06;;;;;;;7.93;3.60;;;;;;;6.03;100.00;100504.97;5089371;28;20162;-28
2022/12/01 08:43:32;;;;;;;9.07;5.57;;;;;;;6.03;100.00;100477.69;5088541;28;20107;-32
2022/12/01 08:45:59;;;;;;;5.82;2.60;;;;;;;6.09;100.00;100481.41;5088758;28;20020;-28
2022/12/01 08:48:25;;;;;;;4.22;2.00;;;;;;;6.24;100.00;100495.53;5088564;28;20126;-29
2022/12/01 08:50:50;;;;;;;3.63;2.22;;;;;;;6.17;100.00;100490.13;5088878;28;20518;-30
2022/12/01 08:53:16;;;;;;;4.40;2.00;;;;;;;6.17;100.00;100492.78;5070516;28;20047;-29
2022/12/01 08:55:41;;;;;;;6.25;2.38;;;;;;;6.02;100.00;100470.72;5070314;28;20046;-28
2022/12/01 08:58:06;;;;;;;5.30;2.20;;;;;;;6.22;100.00;100492.22;5070074;28;20028;-29
2022/12/01 09:00:32;;;;;;;3.78;1.95;;;;;;;6.34;100.00;100488.16;5088303;28;20494;-27
2022/12/01 09:02:57;;;;;;;4.25;2.13;;;;;;;6.30;100.00;100478.91;5088522;28;20419;-28
2022/12/01 09:05:22;;;;;;;4.05;2.45;;;;;;;6.19;100.00;100479.34;5087979;28;20042;-28
2022/12/01 09:08:30;;;;;;;3.00;1.88;;;;;;;6.03;100.00;100464.44;5087721;28;20121;-28
2022/12/01 09:10:33;;;;;;;4.05;2.10;;;;;;;6.40;100.00;100478.66;5087991;28;20479;-27
2022/12/01 09:12:59;;;;;;;4.10;2.50;;;;;;;6.11;100.00;100466.16;5086632;28;20028;-31
2022/12/01 09:15:24;;;;;;;3.80;2.25;;;;;;;6.19;100.00;100482.84;5088143;28;20093;-31
2022/12/01 09:17:50;;;;;;;3.50;1.60;;;;;;;6.11;100.00;100461.72;5088241;28;20609;-30
2022/12/01 09:20:15;;;;;;;3.10;1.63;;;;;;;6.26;100.00;100482.13;5087929;28;20054;-28
2022/12/01 09:22:41;;;;;;;3.88;2.08;;;;;;;6.29;100.00;100481.75;5088017;28;20027;-31
2022/12/01 09:25:13;;;;;;;5.75;2.60;;;;;;;6.46;100.00;100466.50;5088094;28;20035;-30
2022/12/01 09:27:38;;;;;;;5.20;2.25;;;;;;;6.53;100.00;100467.41;5069767;28;20031;-29
2022/12/01 09:30:05;;;;;;;4.50;2.45;;;;;;;6.42;100.00;100458.91;5087617;28;20462;-31
2022/12/01 09:32:30;;;;;;;4.72;2.58;;;;;;;6.52;100.00;100463.97;5087801;28;20028;-32
2022/12/01 09:34:55;;;;;;;5.43;2.65;;;;;;;6.64;100.00;100451.91;5069386;28;20031;-30
2022/12/01 09:37:21;;;;;;;4.15;2.15;;;;;;;6.52;100.00;100445.41;5087870;28;20127;-29
2022/12/01 09:39:46;;;;;;;3.55;2.40;;;;;;;6.57;100.00;100450.16;5087996;28;20692;-30
2022/12/01 09:42:15;;;;;;;3.38;1.90;;;;;;;6.56;100.00;100448.50;5086275;28;20107;-30
2022/12/01 09:44:49;;;;;;;3.92;1.98;;;;;;;6.47;100.00;100439.00;5069669;28;20568;-28
2022/12/01 09:47:17;;;;;;;4.55;2.20;;;;;;;6.64;100.00;100453.72;5087714;28;20055;-29
2022/12/01 09:50:06;;;;;;;3.53;1.80;;;;;;;6.63;100.00;100441.47;5087589;28;20027;-30
2022/12/01 09:52:40;;;;;;;4.40;2.30;;;;;;;6.72;100.00;100450.97;5087200;28;20028;-28
2022/12/01 09:55:14;;;;;;;5.25;3.50;;;;;;;6.71;100.00;100444.03;5069427;28;20042;-31
2022/12/01 09:57:41;;;;;;;8.23;4.60;;;;;;;6.71;100.00;100446.66;5087471;28;20137;-28
2022/12/01 10:00:18;;;;;;;6.28;3.58;;;;;;;6.54;100.00;100439.91;5087214;28;20491;-30
2022/12/01 10:02:48;;;;;;;12.38;8.60;;;;;;;6.63;100.00;100431.69;5087234;28;20577;-31
2022/12/01 10:05:20;;;;;;;23.73;19.30;;;;;;;6.59;100.00;100438.34;5087594;28;20035;-28
2022/12/01 10:07:56;;;;;;;12.82;8.77;;;;;;;6.68;100.00;100439.09;5087396;28;20086;-30
2022/12/01 10:10:33;;;;;;;7.03;4.22;;;;;;;6.64;100.00;100437.81;5087317;28;20637;-30
2022/12/01 10:12:59;;;;;;;8.25;4.35;;;;;;;6.68;100.00;100444.41;5087138;28;20058;-28
2022/12/01 10:16:00;;;;;;;11.13;8.68;;;;;;;6.59;100.00;100445.50;5068648;28;20028;-32
2022/12/01 10:18:43;;;;;;;4.80;3.10;;;;;;;6.49;100.00;100444.94;5037599;28;20531;-35
2022/12/01 10:21:15;;;;;;;4.28;1.92;;;;;;;6.56;100.00;100440.53;5087258;28;20056;-28
2022/12/01 10:23:57;;;;;;;5.20;2.22;;;;;;;6.63;100.00;100446.75;5068523;28;20560;-27
2022/12/01 10:26:54;;;;;;;4.63;2.25;;;;;;;6.39;100.00;100439.91;5087219;28;20028;-29
2022/12/01 10:29:41;;;;;;;5.88;2.95;;;;;;;6.47;100.00;100441.66;5086945;28;20024;-29
2022/12/01 10:32:24;;;;;;;4.25;2.72;;;;;;;6.39;100.00;100435.44;5086547;28;20086;-29
2022/12/01 10:34:50;;;;;;;5.32;2.08;;;;;;;6.33;100.00;100438.00;5068504;28;20032;-36
2022/12/01 10:37:24;;;;;;;4.55;2.10;;;;;;;6.54;100.00;100442.56;5086958;28;20168;-28
2022/12/01 10:39:52;;;;;;;2.65;1.55;;;;;;;6.44;100.00;100438.38;5086906;28;20109;-29
2022/12/01 10:42:29;;;;;;;2.50;1.48;;;;;;;6.63;100.00;100444.13;5085081;28;20776;-31
2022/12/01 10:44:59;;;;;;;3.85;1.65;;;;;;;6.62;100.00;100445.94;5087220;28;20032;-30
2022/12/01 10:47:27;;;;;;;2.65;1.55;;;;;;;6.66;100.00;100438.47;5068837;28;20038;-30
2022/12/01 10:49:53;;;;;;;3.08;1.52;;;;;;;6.34;100.00;100421.09;5068289;28;20279;-30
2022/12/01 10:52:31;;;;;;;2.03;1.00;;;;;;;6.58;100.00;100433.25;5086658;28;20077;-29
2022/12/01 10:54:56;;;;;;;2.28;1.27;;;;;;;6.63;100.00;100426.38;5086386;28;20028;-29
2022/12/01 10:57:22;;;;;;;3.05;1.70;;;;;;;6.60;100.00;100426.75;5086733;28;20085;-28
2022/12/01 10:59:59;;;;;;;2.35;1.30;;;;;;;6.58;100.00;100427.97;5086790;28;20028;-28
2022/12/01 11:02:27;;;;;;;2.60;1.40;;;;;;;6.57;100.00;100402.44;5086869;28;20104;-27
2022/12/01 11:05:03;;;;;;;2.40;1.50;;;;;;;6.53;100.00;100398.53;5086698;28;20036;-28
2022/12/01 11:07:41;;;;;;;2.63;1.40;;;;;;;6.80;100.00;100415.56;5064768;28;20131;-28
2022/12/01 11:10:13;;;;;;;;;;;;;;;6.93;100.00;100418.41;5066955;28;20025;-28
2022/12/01 11:12:38;;;;;;;2.20;1.23;;;;;;;6.88;100.00;100407.50;5066777;28;20027;-30
2022/12/01 11:15:05;;;;;;;2.63;1.20;;;;;;;6.87;100.00;100389.16;5066640;28;20189;-29
2022/12/01 11:17:35;;;;;;;2.58;1.50;;;;;;;6.87;100.00;100405.06;5065004;28;20530;-28
2022/12/01 11:20:22;;;;;;;2.35;1.25;;;;;;;6.79;100.00;100403.34;5064457;28;20033;-27
2022/12/01 11:22:48;;;;;;;1.88;1.02;;;;;;;6.66;100.00;100392.56;5064653;28;20037;-27
2022/12/01 11:25:21;;;;;;;2.13;1.10;;;;;;;6.69;100.00;100397.50;5064909;28;20043;-32
2022/12/01 11:27:53;;;;;;;2.50;1.33;;;;;;;6.75;100.00;100405.53;5066185;28;20052;-31
2022/12/01 11:30:23;;;;;;;2.00;1.38;;;;;;;6.70;100.00;100392.03;5068145;28;20031;-31
2022/12/01 11:32:52;;;;;;;5.38;2.65;;;;;;;6.84;100.00;100396.47;5068674;28;20032;-29